Time;durP1;ratioP1;P1;durP2;ratioP2;P2;SDS_P1;SDS_P2;PMS_P1;PMS_P2;Temp;Humidity;BMP_temperature;BMP_pressure;BME280_temperature;BME280_humidity;BME280_pressure;Samples;Min_cycle;Max_cycle;Signal;HPM_P1;HPM_P2
2023/08/13 00:03:51;;;;;;;3.30;2.40;;;;;;;17.04;92.71;101220.31;10529894;28;20062;-78
2023/08/13 00:08:54;;;;;;;3.55;2.53;;;;;;;17.00;93.19;101217.31;10511878;28;20047;-77
2023/08/13 00:13:56;;;;;;;4.25;2.42;;;;;;;17.02;93.44;101208.72;10559734;28;20437;-77
2023/08/13 00:18:58;;;;;;;3.63;2.25;;;;;;;17.21;93.29;101203.84;10571223;28;20524;-77
2023/08/13 00:24:00;;;;;;;3.00;2.00;;;;;;;17.16;93.57;101193.69;10552934;28;20052;-78
2023/08/13 00:29:04;;;;;;;3.22;2.33;;;;;;;17.21;93.50;101192.75;10570553;28;20051;-77
2023/08/13 00:34:06;;;;;;;3.83;2.33;;;;;;;17.28;92.94;101195.09;10536481;28;20494;-77
2023/08/13 00:39:08;;;;;;;3.15;2.22;;;;;;;17.41;92.56;101181.19;10570228;28;20521;-77
2023/08/13 00:44:11;;;;;;;1.83;1.60;;;;;;;17.42;91.87;101185.59;10552630;28;20039;-77
2023/08/13 00:49:15;;;;;;;3.35;2.15;;;;;;;17.37;92.46;101171.03;10570265;28;20044;-77
2023/08/13 00:54:17;;;;;;;3.58;2.63;;;;;;;17.28;92.63;101170.94;10521698;28;20052;-77
2023/08/13 00:59:20;;;;;;;2.70;2.05;;;;;;;17.40;92.66;101164.84;10492435;28;20059;-77
2023/08/13 01:04:22;;;;;;;2.60;2.13;;;;;;;17.32;92.81;101158.09;10513330;28;20032;-77
2023/08/13 01:10:00;;;;;;;2.53;2.00;;;;;;;17.35;92.62;101163.00;10528097;28;20040;-77
2023/08/13 01:15:07;;;;;;;2.85;1.75;;;;;;;17.36;93.33;101152.75;10493335;28;20048;-78
2023/08/13 01:20:10;;;;;;;2.78;2.50;;;;;;;17.33;93.28;101148.63;10509398;28;20051;-78
2023/08/13 01:25:12;;;;;;;2.28;1.73;;;;;;;17.29;93.90;101144.03;10492423;28;20055;-77
2023/08/13 01:30:24;;;;;;;4.28;2.25;;;;;;;17.32;94.54;101140.63;10493209;28;20044;-78
2023/08/13 01:35:26;;;;;;;2.55;1.95;;;;;;;17.25;94.40;101141.06;10509256;28;20044;-78
2023/08/13 01:40:29;;;;;;;2.08;1.90;;;;;;;17.34;94.09;101138.34;10527197;28;20503;-77
2023/08/13 01:45:31;;;;;;;3.22;2.22;;;;;;;17.33;94.01;101136.72;10511069;28;20036;-78
2023/08/13 01:50:36;;;;;;;2.17;1.77;;;;;;;17.30;94.12;101126.25;10517482;28;20048;-78
2023/08/13 01:55:38;;;;;;;2.00;1.70;;;;;;;17.37;93.98;101119.16;10500568;28;20048;-77
2023/08/13 02:00:41;;;;;;;3.20;2.05;;;;;;;17.25;94.95;101116.09;10501373;28;20044;-77
2023/08/13 02:05:43;;;;;;;3.03;1.65;;;;;;;17.44;95.03;101110.38;10535154;28;20036;-77
2023/08/13 02:10:45;;;;;;;4.50;2.28;;;;;;;17.22;96.92;101102.06;10517481;28;20059;-78
2023/08/13 02:15:48;;;;;;;1.75;1.60;;;;;;;17.23;97.22;101104.50;10534065;28;20041;-77
2023/08/13 02:20:50;;;;;;;2.35;1.40;;;;;;;17.24;98.08;101100.59;10533918;28;20036;-77
2023/08/13 02:25:53;;;;;;;2.70;1.95;;;;;;;17.32;97.20;101102.59;10533734;28;20040;-77
2023/08/13 02:30:55;;;;;;;4.20;1.85;;;;;;;17.33;97.27;101086.78;10515763;28;20062;-77
2023/08/13 02:35:58;;;;;;;1.50;1.40;;;;;;;17.41;96.65;101097.13;10515397;28;20049;-77
2023/08/13 02:41:00;;;;;;;1.17;0.95;;;;;;;17.33;97.60;101092.34;10532515;28;20055;-77
2023/08/13 02:46:02;;;;;;;1.35;1.15;;;;;;;17.36;97.16;101092.53;10532913;28;20044;-77
2023/08/13 02:51:04;;;;;;;1.85;1.40;;;;;;;17.41;96.95;101086.03;10498323;28;20040;-77
2023/08/13 02:56:07;;;;;;;1.40;1.30;;;;;;;17.28;98.00;101084.16;10507745;28;20056;-78
2023/08/13 03:01:10;;;;;;;2.50;1.55;;;;;;;17.25;98.24;101080.06;10531863;28;20506;-77
2023/08/13 03:06:13;;;;;;;1.58;1.42;;;;;;;17.31;99.26;101072.41;10517843;28;20051;-77
2023/08/13 03:11:15;;;;;;;1.70;1.33;;;;;;;17.32;99.30;101072.09;10532182;28;20421;-77
2023/08/13 03:16:17;;;;;;;4.60;1.10;;;;;;;17.15;100.00;101081.09;10514203;28;20040;-77
2023/08/13 03:21:22;;;;;;;1.77;1.38;;;;;;;17.04;100.00;101082.50;10531854;28;20052;-77
2023/08/13 03:26:24;;;;;;;2.03;1.75;;;;;;;17.02;100.00;101068.16;10531625;28;20056;-77
2023/08/13 03:31:29;;;;;;;1.85;1.15;;;;;;;16.97;100.00;101059.94;10513530;28;20051;-77
2023/08/13 03:36:36;;;;;;;1.52;1.40;;;;;;;17.01;100.00;101062.88;10530974;28;20056;-77
2023/08/13 03:41:38;;;;;;;0.93;0.93;;;;;;;17.00;100.00;101062.06;10512844;28;20040;-77
2023/08/13 03:46:41;;;;;;;1.77;1.10;;;;;;;17.03;100.00;101055.09;10512731;28;20036;-78
2023/08/13 03:51:43;;;;;;;2.70;1.50;;;;;;;17.06;100.00;101055.28;10530365;28;20387;-77
2023/08/13 03:56:46;;;;;;;1.10;1.00;;;;;;;17.11;100.00;101040.47;10495672;28;20053;-77
2023/08/13 04:01:48;;;;;;;1.17;0.90;;;;;;;17.20;100.00;101044.13;10512609;28;20051;-77
2023/08/13 04:06:51;;;;;;;0.75;0.75;;;;;;;17.29;100.00;101030.31;10487391;28;20037;-77
2023/08/13 04:11:53;;;;;;;2.95;1.38;;;;;;;17.33;100.00;101031.31;10470613;28;20049;-77
2023/08/13 04:16:55;;;;;;;1.35;1.17;;;;;;;17.33;100.00;101021.03;10488363;28;20056;-77
2023/08/13 04:21:58;;;;;;;1.55;1.20;;;;;;;17.31;100.00;101020.53;10513993;28;20494;-77
2023/08/13 04:27:01;;;;;;;2.08;1.33;;;;;;;17.38;100.00;101017.31;10511213;28;20037;-77
2023/08/13 04:32:05;;;;;;;1.17;1.02;;;;;;;17.36;100.00;101014.06;10511016;28;20040;-77
2023/08/13 04:37:07;;;;;;;2.40;1.67;;;;;;;17.39;100.00;100999.53;10511533;28;20040;-77
2023/08/13 04:42:11;;;;;;;2.00;1.35;;;;;;;17.33;100.00;100992.47;10510638;28;20052;-77
2023/08/13 04:47:13;;;;;;;0.98;0.90;;;;;;;17.34;100.00;100997.69;10528925;28;20040;-77
2023/08/13 04:52:16;;;;;;;3.33;1.52;;;;;;;17.36;100.00;100986.31;10503934;28;20041;-77
2023/08/13 04:57:18;;;;;;;2.42;1.40;;;;;;;17.39;100.00;100980.94;10479176;28;20053;-78
2023/08/13 05:02:20;;;;;;;1.90;1.65;;;;;;;17.40;100.00;100977.03;10468126;28;20044;-77
2023/08/13 05:07:23;;;;;;;2.33;2.13;;;;;;;17.52;100.00;100968.09;10452044;28;20555;-77
2023/08/13 05:12:27;;;;;;;4.18;1.80;;;;;;;17.55;100.00;100963.88;10452080;28;20036;-77
2023/08/13 05:17:30;;;;;;;2.55;2.00;;;;;;;17.56;100.00;100957.19;10451756;28;20041;-77
2023/08/13 05:22:33;;;;;;;1.05;0.90;;;;;;;17.62;100.00;100953.94;10467226;28;20044;-77
2023/08/13 05:27:35;;;;;;;1.52;1.42;;;;;;;17.51;100.00;100960.91;10467979;28;20534;-77
2023/08/13 05:32:38;;;;;;;2.40;1.80;;;;;;;17.57;100.00;100958.81;10484412;28;20041;-77
2023/08/13 05:37:41;;;;;;;2.58;2.03;;;;;;;17.59;100.00;100957.34;10467295;28;20063;-77
2023/08/13 05:42:45;;;;;;;2.58;1.95;;;;;;;17.69;100.00;100957.09;10451333;28;20037;-77
2023/08/13 05:47:47;;;;;;;4.10;2.10;;;;;;;17.65;100.00;100949.69;10467624;28;20048;-77
2023/08/13 05:52:50;;;;;;;4.63;2.50;;;;;;;17.72;100.00;100941.78;10467429;28;20045;-77
2023/08/13 05:57:52;;;;;;;5.53;3.08;;;;;;;17.68;100.00;100949.91;10485055;28;20068;-76
2023/08/13 06:02:54;;;;;;;5.97;3.47;;;;;;;17.76;100.00;100945.53;10485659;28;20044;-77
2023/08/13 06:07:57;;;;;;;3.60;2.58;;;;;;;17.76;100.00;100935.25;10497542;28;20056;-76
2023/08/13 06:12:59;;;;;;;6.57;3.40;;;;;;;17.75;100.00;100928.06;10526344;28;20056;-77
2023/08/13 06:18:02;;;;;;;3.67;2.90;;;;;;;17.91;100.00;100919.28;10526735;28;20052;-77
2023/08/13 06:23:04;;;;;;;4.90;3.20;;;;;;;17.94;100.00;100910.31;10547289;28;20044;-76
2023/08/13 06:28:06;;;;;;;3.63;2.80;;;;;;;17.98;100.00;100908.50;10549880;28;20032;-76
2023/08/13 06:33:08;;;;;;;3.90;2.20;;;;;;;18.19;100.00;100898.38;10537839;28;20493;-76
2023/08/13 06:38:11;;;;;;;4.18;2.58;;;;;;;18.38;100.00;100900.84;10574838;28;20051;-77
2023/08/13 06:43:14;;;;;;;4.88;4.00;;;;;;;18.34;100.00;100895.13;10574894;28;20525;-77
2023/08/13 06:48:16;;;;;;;5.25;4.38;;;;;;;18.34;100.00;100884.00;10556930;28;20040;-77
2023/08/13 06:53:18;;;;;;;6.05;3.50;;;;;;;18.56;100.00;100873.84;10574851;28;20129;-76
2023/08/13 06:58:20;;;;;;;9.30;3.88;;;;;;;18.78;100.00;100870.94;10516304;28;20044;-77
2023/08/13 07:03:23;;;;;;;6.85;4.68;;;;;;;18.85;100.00;100870.41;10532073;28;20051;-77
2023/08/13 07:08:25;;;;;;;4.90;3.88;;;;;;;18.80;100.00;100862.25;10514788;28;20053;-77
2023/08/13 07:13:29;;;;;;;5.60;4.05;;;;;;;19.09;100.00;100858.72;10532759;28;20099;-77
2023/08/13 07:18:31;;;;;;;7.07;4.43;;;;;;;19.16;98.79;100861.81;10513770;28;20431;-77
2023/08/13 07:23:33;;;;;;;6.47;4.15;;;;;;;19.10;98.89;100860.38;10514621;28;20040;-76
2023/08/13 07:28:35;;;;;;;5.53;3.67;;;;;;;19.18;98.23;100862.28;10531746;28;20052;-77
2023/08/13 07:33:37;;;;;;;8.15;6.30;;;;;;;19.28;97.95;100856.34;10531804;28;20048;-77
2023/08/13 07:38:40;;;;;;;6.45;4.90;;;;;;;19.40;97.46;100848.09;10531504;28;20506;-76
2023/08/13 07:43:42;;;;;;;6.93;4.53;;;;;;;19.61;95.73;100834.25;10512166;28;20044;-76
2023/08/13 07:48:45;;;;;;;7.57;4.80;;;;;;;19.74;95.79;100849.88;10531264;28;20047;-76
2023/08/13 07:53:47;;;;;;;8.90;5.68;;;;;;;19.54;95.73;100842.31;10512621;28;20048;-78
2023/08/13 07:58:49;;;;;;;5.47;4.35;;;;;;;19.58;96.58;100829.34;10530002;28;20052;-76
2023/08/13 08:03:51;;;;;;;7.70;5.75;;;;;;;19.77;95.46;100838.06;10494065;28;20059;-77
2023/08/13 08:08:54;;;;;;;6.22;4.75;;;;;;;19.86;95.02;100832.44;10488337;28;20522;-77
2023/08/13 08:13:56;;;;;;;8.45;5.95;;;;;;;20.01;93.77;100829.06;10488782;28;20041;-77
2023/08/13 08:18:58;;;;;;;7.63;5.43;;;;;;;20.13;92.60;100831.06;10470268;28;20048;-77
2023/08/13 08:24:03;;;;;;;9.02;5.70;;;;;;;20.15;92.73;100835.16;10487998;28;20057;-77
2023/08/13 08:29:05;;;;;;;7.15;5.32;;;;;;;20.24;91.52;100831.47;10487549;28;20548;-77
2023/08/13 08:34:08;;;;;;;6.15;5.25;;;;;;;20.24;91.54;100826.72;10486850;28;20401;-76
2023/08/13 08:39:10;;;;;;;8.30;6.10;;;;;;;20.33;91.90;100818.28;10487306;28;20060;-78
2023/08/13 08:44:22;;;;;;;9.23;7.43;;;;;;;20.43;91.24;100823.47;10487452;28;20052;-78
2023/08/13 08:49:24;;;;;;;9.20;6.65;;;;;;;20.82;89.04;100818.44;10486281;28;20048;-77
2023/08/13 08:54:26;;;;;;;8.45;5.55;;;;;;;20.77;88.26;100827.84;10465462;28;20530;-78
2023/08/13 08:59:28;;;;;;;8.30;5.20;;;;;;;20.56;89.43;100825.13;10520057;28;20052;-77
2023/08/13 09:04:31;;;;;;;6.15;4.63;;;;;;;20.65;88.73;100825.03;10528027;28;20045;-77
2023/08/13 09:09:33;;;;;;;13.27;6.00;;;;;;;20.78;88.29;100819.13;10509619;28;20522;-77
2023/08/13 09:14:35;;;;;;;9.93;7.20;;;;;;;21.29;86.00;100811.31;10526792;28;20055;-77
2023/08/13 09:19:37;;;;;;;10.05;5.53;;;;;;;21.24;85.81;100811.56;10527549;28;20506;-77
2023/08/13 09:24:41;;;;;;;8.65;6.25;;;;;;;21.81;83.06;100806.94;10509250;28;20688;-77
2023/08/13 09:29:43;;;;;;;10.20;5.78;;;;;;;21.81;83.24;100798.56;10485592;28;20170;-77
2023/08/13 09:34:46;;;;;;;6.57;5.28;;;;;;;21.98;81.47;100804.69;10467732;28;20052;-77
2023/08/13 09:39:49;;;;;;;8.73;6.65;;;;;;;22.45;79.41;100798.47;10480711;28;20052;-77
2023/08/13 09:44:56;;;;;;;11.18;7.07;;;;;;;23.14;76.67;100790.69;10451190;28;20048;-77
2023/08/13 09:49:58;;;;;;;12.18;7.80;;;;;;;22.95;77.17;100790.59;10443092;28;20459;-77
2023/08/13 09:55:08;;;;;;;9.10;6.72;;;;;;;22.24;80.24;100795.06;10434393;28;20049;-77
2023/08/13 10:00:12;;;;;;;10.02;6.65;;;;;;;22.60;78.33;100790.47;10523556;28;20060;-77
2023/08/13 10:05:15;;;;;;;8.13;6.70;;;;;;;22.56;79.22;100779.16;10526351;28;20130;-77
2023/08/13 10:10:17;;;;;;;9.27;6.38;;;;;;;22.65;78.99;100779.00;10533985;28;20391;-77
2023/08/13 10:15:20;;;;;;;10.32;7.30;;;;;;;22.40;79.81;100773.56;10516751;28;20395;-77
2023/08/13 10:20:25;;;;;;;10.05;7.10;;;;;;;22.71;78.80;100769.16;10533655;28;20048;-77
2023/08/13 10:25:29;;;;;;;10.43;7.25;;;;;;;23.10;76.97;100768.22;10534193;28;20040;-77
2023/08/13 10:30:32;;;;;;;9.63;6.38;;;;;;;23.42;76.36;100770.94;10532979;28;20048;-77
2023/08/13 10:35:37;;;;;;;8.38;5.95;;;;;;;23.64;75.51;100752.66;10515388;28;20047;-77
2023/08/13 10:40:59;;;;;;;11.02;7.45;;;;;;;23.49;74.60;100757.09;10491873;28;20048;-77
2023/08/13 10:46:09;;;;;;;10.45;7.00;;;;;;;23.95;73.46;100749.75;10495333;28;20045;-77
2023/08/13 10:51:11;;;;;;;9.07;7.28;;;;;;;23.99;72.74;100747.00;10513755;28;20053;-77
2023/08/13 10:56:17;;;;;;;8.95;6.80;;;;;;;23.74;74.90;100750.06;10514685;28;20052;-77
2023/08/13 11:01:20;;;;;;;10.25;6.90;;;;;;;23.59;75.30;100741.72;10532607;28;20621;-77
2023/08/13 11:06:24;;;;;;;9.98;6.18;;;;;;;23.46;75.20;100729.84;10532411;28;20047;-77
2023/08/13 11:11:26;;;;;;;8.77;7.00;;;;;;;23.34;75.61;100735.56;10514216;28;20052;-77
2023/08/13 11:16:29;;;;;;;7.93;6.28;;;;;;;23.43;74.46;100734.19;10532054;28;20047;-77
2023/08/13 11:21:31;;;;;;;9.07;7.18;;;;;;;23.26;76.58;100728.19;10530541;28;20049;-76
2023/08/13 11:26:34;;;;;;;9.48;6.53;;;;;;;23.47;75.59;100717.47;10496779;28;20064;-77
2023/08/13 11:31:38;;;;;;;9.30;6.05;;;;;;;23.49;75.52;100711.47;10521992;28;20074;-77
2023/08/13 11:36:40;;;;;;;10.38;6.93;;;;;;;23.78;74.41;100705.34;10517644;28;20067;-77
2023/08/13 11:41:43;;;;;;;11.57;7.75;;;;;;;24.22;72.79;100703.00;10513688;28;20055;-78
2023/08/13 11:46:56;;;;;;;9.32;6.57;;;;;;;23.96;73.08;100702.91;10513372;28;20036;-78
2023/08/13 11:51:58;;;;;;;10.45;6.95;;;;;;;24.06;73.23;100693.88;10512497;28;20048;-78
2023/08/13 11:57:01;;;;;;;11.18;7.97;;;;;;;24.15;73.57;100697.25;10529851;28;20056;-78
2023/08/13 12:02:03;;;;;;;10.07;7.40;;;;;;;24.06;74.44;100691.88;10529702;28;20056;-78
2023/08/13 12:07:09;;;;;;;10.05;7.85;;;;;;;24.08;74.65;100688.69;10512171;28;20037;-77
2023/08/13 12:12:11;;;;;;;10.75;7.60;;;;;;;24.14;74.05;100678.81;10529964;28;20044;-77
2023/08/13 12:17:13;;;;;;;10.45;7.97;;;;;;;24.23;73.73;100676.56;10529224;28;20045;-77
2023/08/13 12:22:15;;;;;;;9.55;7.10;;;;;;;24.37;73.13;100681.66;10529652;28;20051;-77
2023/08/13 12:27:17;;;;;;;10.95;7.55;;;;;;;24.37;72.74;100672.44;10529048;28;20048;-77
2023/08/13 12:32:20;;;;;;;9.55;7.70;;;;;;;24.74;71.79;100679.09;10526637;28;20036;-77
2023/08/13 12:37:22;;;;;;;10.00;7.32;;;;;;;25.01;70.11;100676.34;10483698;28;20522;-77
2023/08/13 12:42:24;;;;;;;10.82;7.80;;;;;;;24.98;71.23;100666.59;10487572;28;20439;-76
2023/08/13 12:47:26;;;;;;;11.32;7.95;;;;;;;25.09;69.47;100667.63;10470562;28;20049;-76
2023/08/13 12:52:29;;;;;;;10.75;7.28;;;;;;;25.14;70.29;100663.66;10444286;28;20076;-76
2023/08/13 12:57:31;;;;;;;10.00;7.13;;;;;;;25.25;68.84;100661.81;10464395;28;20053;-76
2023/08/13 13:02:34;;;;;;;10.10;7.13;;;;;;;25.05;70.24;100661.16;10481996;28;20522;-76
2023/08/13 13:07:36;;;;;;;14.90;8.23;;;;;;;25.31;69.62;100654.69;10485723;28;20060;-76
2023/08/13 13:12:40;;;;;;;9.80;7.00;;;;;;;25.30;69.50;100652.25;10486035;28;20151;-76
2023/08/13 13:17:42;;;;;;;9.85;7.40;;;;;;;25.02;68.84;100638.66;10523230;28;20461;-77
2023/08/13 13:22:45;;;;;;;10.32;7.28;;;;;;;24.98;69.24;100646.16;10568829;28;20050;-77
2023/08/13 13:27:47;;;;;;;9.85;7.53;;;;;;;25.26;68.03;100624.13;10568874;28;20043;-77
2023/08/13 13:32:49;;;;;;;11.27;7.70;;;;;;;25.10;67.62;100623.50;10563972;28;20036;-77
2023/08/13 13:37:51;;;;;;;8.30;6.22;;;;;;;24.90;67.37;100626.41;10514262;28;20041;-77
2023/08/13 13:42:54;;;;;;;9.10;6.68;;;;;;;24.94;67.67;100623.66;10531842;28;20040;-76
2023/08/13 13:47:56;;;;;;;9.68;7.88;;;;;;;24.83;68.60;100625.50;10517801;28;20045;-77
2023/08/13 13:52:59;;;;;;;10.38;7.45;;;;;;;24.71;68.97;100620.91;10501152;28;20056;-77
2023/08/13 13:58:01;;;;;;;8.75;7.25;;;;;;;24.68;69.36;100618.88;10534188;28;20048;-77
2023/08/13 14:03:03;;;;;;;10.35;7.47;;;;;;;24.48;68.70;100614.53;10516924;28;20419;-77
2023/08/13 14:08:05;;;;;;;10.95;6.88;;;;;;;24.44;69.68;100614.44;10534337;28;20036;-77
2023/08/13 14:13:08;;;;;;;10.73;7.50;;;;;;;24.37;69.32;100611.53;10533839;28;20044;-77
2023/08/13 14:18:10;;;;;;;12.38;7.68;;;;;;;24.27;70.14;100615.75;10534157;28;20048;-77
2023/08/13 14:23:12;;;;;;;10.38;7.50;;;;;;;24.17;70.46;100616.38;10534359;28;20048;-77
2023/08/13 14:28:14;;;;;;;13.45;7.75;;;;;;;24.18;71.85;100618.00;10534019;28;20521;-77
2023/08/13 14:33:16;;;;;;;13.02;7.97;;;;;;;24.17;73.01;100612.78;10533376;28;20040;-77
2023/08/13 14:38:18;;;;;;;12.18;8.55;;;;;;;24.10;74.41;100621.03;10533113;28;20051;-77
2023/08/13 14:43:21;;;;;;;13.13;8.93;;;;;;;23.94;75.58;100621.16;10532016;28;20060;-77
2023/08/13 14:48:23;;;;;;;13.25;9.43;;;;;;;23.72;76.05;100620.75;10534406;28;20037;-77
2023/08/13 14:53:25;;;;;;;12.38;8.73;;;;;;;23.68;77.08;100617.06;10514445;28;20049;-77
2023/08/13 14:58:27;;;;;;;11.75;8.43;;;;;;;23.49;76.03;100625.47;10514583;28;20060;-77
2023/08/13 15:03:29;;;;;;;13.77;9.23;;;;;;;23.33;76.81;100630.31;10532075;28;20049;-77
2023/08/13 15:08:32;;;;;;;12.50;8.70;;;;;;;23.18;77.87;100620.81;10532712;28;20056;-77
2023/08/13 15:13:34;;;;;;;17.85;9.07;;;;;;;23.14;77.47;100617.94;10532119;28;20407;-77
2023/08/13 15:18:38;;;;;;;12.88;8.70;;;;;;;23.20;77.14;100615.66;10532470;28;20048;-77
2023/08/13 15:23:40;;;;;;;11.77;8.77;;;;;;;23.12;77.57;100611.09;10531809;28;20048;-77
2023/08/13 15:28:42;;;;;;;13.05;8.32;;;;;;;23.19;77.03;100611.22;10531776;28;20545;-77
2023/08/13 15:33:45;;;;;;;13.20;8.70;;;;;;;23.19;77.72;100610.41;10530954;28;20037;-77
2023/08/13 15:38:47;;;;;;;12.38;8.63;;;;;;;23.26;76.82;100616.19;10534463;28;20510;-77
2023/08/13 15:43:49;;;;;;;14.18;8.32;;;;;;;23.23;77.14;100614.09;10530438;28;20047;-77
2023/08/13 15:48:52;;;;;;;15.50;9.32;;;;;;;23.28;77.19;100611.84;10530704;28;20040;-77
2023/08/13 15:53:54;;;;;;;11.27;8.35;;;;;;;23.14;76.62;100611.53;10530416;28;20048;-77
2023/08/13 15:58:56;;;;;;;12.90;8.60;;;;;;;22.94;77.03;100616.28;10529849;28;20056;-77
2023/08/13 16:03:58;;;;;;;14.00;8.38;;;;;;;22.81;77.37;100615.56;10529215;28;20049;-77
2023/08/13 16:09:01;;;;;;;12.98;8.57;;;;;;;22.68;78.21;100616.03;10515516;28;20040;-77
2023/08/13 16:14:03;;;;;;;14.00;8.85;;;;;;;22.44;79.44;100615.06;10529561;28;20511;-77
2023/08/13 16:19:05;;;;;;;15.05;8.68;;;;;;;22.23;80.16;100620.94;10529968;28;20043;-77
2023/08/13 16:24:08;;;;;;;11.07;7.65;;;;;;;22.09;79.63;100616.97;10529979;28;20036;-77
2023/08/13 16:29:10;;;;;;;12.07;7.53;;;;;;;21.94;80.40;100608.19;10529262;28;20510;-77
2023/08/13 16:34:13;;;;;;;11.15;7.95;;;;;;;21.95;79.96;100609.00;10528809;28;20052;-77
2023/08/13 16:39:15;;;;;;;13.35;8.40;;;;;;;21.89;80.16;100610.44;10548615;28;20485;-77
2023/08/13 16:44:17;;;;;;;12.90;8.45;;;;;;;21.71;82.00;100618.31;10552113;28;20048;-77
2023/08/13 16:49:19;;;;;;;16.02;7.85;;;;;;;21.53;82.89;100620.63;10542667;28;20043;-77
2023/08/13 16:54:22;;;;;;;11.60;7.85;;;;;;;21.33;84.20;100629.97;10527185;28;20040;-77
2023/08/13 16:59:24;;;;;;;10.55;6.90;;;;;;;21.32;85.29;100619.97;10527202;28;20059;-77
2023/08/13 17:04:26;;;;;;;12.27;7.40;;;;;;;21.14;86.38;100613.84;10510192;28;20047;-77
2023/08/13 17:09:28;;;;;;;13.38;7.45;;;;;;;20.87;87.34;100629.38;10528118;28;20483;-77
2023/08/13 17:14:30;;;;;;;11.73;7.75;;;;;;;20.83;86.92;100630.44;10527303;28;20040;-77
2023/08/13 17:19:33;;;;;;;10.38;7.35;;;;;;;20.84;87.15;100632.06;10526180;28;20060;-77
2023/08/13 17:24:35;;;;;;;13.88;7.85;;;;;;;20.75;86.99;100627.41;10509572;28;20473;-77
2023/08/13 17:29:37;;;;;;;12.93;7.70;;;;;;;20.69;86.95;100628.00;10526956;28;20037;-77
2023/08/13 17:34:40;;;;;;;10.00;7.15;;;;;;;20.58;88.42;100622.06;10475773;28;20056;-77
2023/08/13 17:39:42;;;;;;;10.50;7.22;;;;;;;20.55;88.08;100617.19;10526701;28;20059;-77
2023/08/13 17:44:45;;;;;;;12.40;7.13;;;;;;;20.51;87.41;100613.50;10527304;28;20037;-77
2023/08/13 17:49:47;;;;;;;12.98;7.93;;;;;;;20.58;87.37;100605.34;10453906;28;20044;-77
2023/08/13 17:54:49;;;;;;;10.50;6.97;;;;;;;20.49;88.47;100610.25;10461055;28;20036;-77
2023/08/13 17:59:52;;;;;;;12.43;7.40;;;;;;;20.56;88.40;100616.03;10525790;28;20052;-77
2023/08/13 18:05:03;;;;;;;10.00;7.43;;;;;;;20.43;89.78;100609.63;10529763;28;20121;-77
2023/08/13 18:10:07;;;;;;;12.43;6.47;;;;;;;20.39;90.59;100627.38;10512359;28;20491;-77
2023/08/13 18:15:09;;;;;;;14.55;7.70;;;;;;;20.50;90.84;100628.59;10524857;28;20166;-77
2023/08/13 18:20:11;;;;;;;13.55;7.78;;;;;;;20.50;91.00;100638.94;10534957;28;20047;-77
2023/08/13 18:25:14;;;;;;;13.80;7.93;;;;;;;20.43;91.57;100628.34;10567770;28;20044;-77
2023/08/13 18:30:16;;;;;;;12.25;7.63;;;;;;;20.38;92.90;100623.78;10556319;28;20055;-77
2023/08/13 18:35:18;;;;;;;13.43;7.07;;;;;;;20.29;93.08;100630.63;10575172;28;20048;-77
2023/08/13 18:40:23;;;;;;;11.15;7.63;;;;;;;20.22;93.48;100622.03;10540094;28;20505;-77
2023/08/13 18:45:28;;;;;;;11.38;7.40;;;;;;;20.16;94.18;100619.47;10575104;28;20040;-77
2023/08/13 18:50:30;;;;;;;13.77;7.95;;;;;;;20.10;94.54;100631.97;10572325;28;22791;-77
2023/08/13 18:55:33;;;;;;;12.65;7.32;;;;;;;20.07;94.67;100623.50;10536466;28;20052;-77
2023/08/13 19:00:35;;;;;;;11.88;7.82;;;;;;;20.07;94.73;100617.94;10531528;28;20075;-77
2023/08/13 19:05:41;;;;;;;15.40;8.38;;;;;;;20.02;95.24;100626.53;10517378;28;20033;-77
2023/08/13 19:10:47;;;;;;;11.30;7.22;;;;;;;19.96;95.43;100631.50;10574044;28;20048;-77
2023/08/13 19:15:49;;;;;;;12.57;7.60;;;;;;;19.90;95.41;100632.88;10550463;28;20049;-77
2023/08/13 19:20:53;;;;;;;12.73;8.48;;;;;;;19.84;95.51;100625.91;10573361;28;20414;-77
2023/08/13 19:25:56;;;;;;;10.90;7.90;;;;;;;19.79;96.09;100615.00;10570269;28;20402;-78
2023/08/13 19:30:58;;;;;;;12.55;7.80;;;;;;;19.75;96.27;100616.81;10496672;28;20040;-77
2023/08/13 19:36:00;;;;;;;15.40;8.40;;;;;;;19.69;96.53;100609.84;10534175;28;20531;-77
2023/08/13 19:41:02;;;;;;;10.80;7.55;;;;;;;19.60;96.54;100618.25;10529525;28;20044;-77
2023/08/13 19:46:05;;;;;;;16.08;8.27;;;;;;;19.53;96.65;100610.44;10496234;28;20422;-77
2023/08/13 19:51:07;;;;;;;12.63;7.75;;;;;;;19.45;97.66;100608.56;10543388;28;20059;-77
2023/08/13 19:56:10;;;;;;;11.35;7.35;;;;;;;19.38;98.00;100608.31;10571939;28;20052;-77
2023/08/13 20:01:12;;;;;;;12.48;8.02;;;;;;;19.33;97.91;100614.09;10571517;28;20563;-77
2023/08/13 20:06:14;;;;;;;12.93;7.63;;;;;;;19.30;98.13;100613.97;10570739;28;20056;-77
2023/08/13 20:11:16;;;;;;;12.57;8.05;;;;;;;19.30;98.29;100617.56;10545194;28;20047;-75
2023/08/13 20:16:19;;;;;;;13.95;7.18;;;;;;;19.29;98.38;100618.69;10488414;28;20152;-73
2023/08/13 20:21:23;;;;;;;12.70;7.88;;;;;;;19.32;97.41;100611.63;10509920;28;20075;-74
2023/08/13 20:26:25;;;;;;;12.25;7.25;;;;;;;19.33;97.14;100602.94;10527187;28;20052;-76
2023/08/13 20:31:28;;;;;;;12.32;7.28;;;;;;;19.31;96.96;100615.56;10521272;28;20683;-77
2023/08/13 20:36:32;;;;;;;14.48;7.30;;;;;;;19.35;96.08;100614.56;10528460;28;20044;-77
2023/08/13 20:41:35;;;;;;;12.32;7.13;;;;;;;19.33;96.21;100619.66;10497012;28;20471;-77
2023/08/13 20:46:37;;;;;;;14.13;8.55;;;;;;;19.25;95.54;100629.69;10518422;28;20036;-76
2023/08/13 20:51:39;;;;;;;13.80;7.90;;;;;;;19.24;95.40;100635.59;10525829;28;20036;-76
2023/08/13 20:56:42;;;;;;;13.50;7.13;;;;;;;19.25;95.35;100642.78;10525560;28;20056;-76
2023/08/13 21:01:44;;;;;;;13.43;7.95;;;;;;;19.25;94.37;100651.94;10510555;28;20048;-77
2023/08/13 21:06:46;;;;;;;11.60;7.05;;;;;;;19.22;93.27;100647.06;10499259;28;20036;-77
2023/08/13 21:11:49;;;;;;;12.73;6.90;;;;;;;19.28;93.14;100645.72;10526711;28;20059;-78
2023/08/13 21:16:51;;;;;;;10.93;6.97;;;;;;;19.30;92.46;100645.38;10486115;28;20495;-77
2023/08/13 21:21:53;;;;;;;10.45;6.68;;;;;;;19.35;91.76;100650.72;10467552;28;20045;-77
2023/08/13 21:26:55;;;;;;;10.18;6.30;;;;;;;19.41;91.42;100646.56;10521732;28;21634;-77
2023/08/13 21:31:57;;;;;;;10.27;6.63;;;;;;;19.39;91.29;100651.66;10499909;28;20403;-77
2023/08/13 21:36:59;;;;;;;11.82;7.85;;;;;;;19.34;90.70;100653.84;10485793;28;20041;-75
2023/08/13 21:42:02;;;;;;;11.10;6.72;;;;;;;19.36;90.77;100652.34;10486630;28;20526;-77
2023/08/13 21:47:04;;;;;;;12.68;7.50;;;;;;;19.33;90.63;100650.25;10467507;28;20041;-75
2023/08/13 21:52:07;;;;;;;10.80;6.85;;;;;;;19.33;90.54;100649.44;10478985;28;20058;-75
2023/08/13 21:57:09;;;;;;;11.43;7.00;;;;;;;19.33;90.97;100641.91;10504071;28;20049;-75
2023/08/13 22:02:11;;;;;;;11.93;7.10;;;;;;;19.21;91.34;100628.72;10527790;28;20047;-75
2023/08/13 22:07:14;;;;;;;10.95;7.15;;;;;;;19.05;92.06;100624.94;10534393;28;20045;-78
2023/08/13 22:12:16;;;;;;;12.52;7.50;;;;;;;18.87;92.86;100638.13;10523118;28;20056;-78
2023/08/13 22:17:19;;;;;;;11.98;7.25;;;;;;;18.72;93.62;100632.34;10504752;28;20036;-77
2023/08/13 22:22:22;;;;;;;11.45;6.43;;;;;;;18.61;94.16;100641.06;10516162;28;20394;-77
2023/08/13 22:27:24;;;;;;;9.65;6.57;;;;;;;18.55;94.85;100642.38;10530295;28;20052;-76
2023/08/13 22:32:27;;;;;;;13.65;7.20;;;;;;;18.50;95.21;100637.00;10533190;28;20043;-76
2023/08/13 22:37:30;;;;;;;10.57;6.55;;;;;;;18.47;95.75;100648.00;10533405;28;20052;-77
2023/08/13 22:42:33;;;;;;;13.43;6.50;;;;;;;18.48;96.09;100644.88;10514153;28;20146;-77
2023/08/13 22:47:35;;;;;;;11.18;6.88;;;;;;;18.52;96.20;100633.91;10522446;28;20043;-77
2023/08/13 22:52:37;;;;;;;14.20;7.03;;;;;;;18.55;95.50;100639.59;10500746;28;20033;-77
2023/08/13 22:57:39;;;;;;;11.90;6.95;;;;;;;18.47;96.13;100636.88;10530869;28;20491;-78
2023/08/13 23:02:41;;;;;;;12.40;6.65;;;;;;;18.42;96.10;100642.63;10499494;28;20419;-77